In Rescue
 
Open Full Screen Window  High Contrast Mode
Wind Gusting 31 knots
18
March 29, 2020 7:40 PM EDT
Weather Information
Wind Direction
  260 °
Wind Speed
  18 kt (21 mph)
Wind Gust
  31 kt (36 mph)
Altimeter
29.88 in
Visibility
10 SM
Temperature
13° C
55° F
Dewpoint
04° C
39° F
Humidity
55%
1hr Rain Fall
00.00 in.
24hr Rain Fall
00.27 in.
Sky Condition
Broken @ 6,000 ft
VFR

METAR KEDJ 292340Z AUTO 26018G31KT 10SM BKN060 13/04 A2988 RMK AO1

FAA Disclaimer: The data displayed is for advisory purposes only and is not to be used for flight planning or operations.